sensor_id;sensor_type;location;lat;lon;timestamp;P1;durP1;ratioP1;P2;durP2;ratioP2
20832;SDS011;56075;51.264;7.150;2022-09-14T00:01:14;4.82;;;2.38;;
20832;SDS011;56075;51.264;7.150;2022-09-14T00:03:50;5.63;;;2.65;;
20832;SDS011;56075;51.264;7.150;2022-09-14T00:06:22;5.78;;;2.97;;
20832;SDS011;56075;51.264;7.150;2022-09-14T00:08:55;5.18;;;2.83;;
20832;SDS011;56075;51.264;7.150;2022-09-14T00:11:28;5.85;;;2.92;;
20832;SDS011;56075;51.264;7.150;2022-09-14T00:14:01;6.45;;;2.47;;
20832;SDS011;56075;51.264;7.150;2022-09-14T00:16:34;4.68;;;2.10;;
20832;SDS011;56075;51.264;7.150;2022-09-14T00:19:14;8.20;;;2.58;;
20832;SDS011;56075;51.264;7.150;2022-09-14T00:21:52;5.03;;;2.30;;
20832;SDS011;56075;51.264;7.150;2022-09-14T00:24:25;5.15;;;2.22;;
20832;SDS011;56075;51.264;7.150;2022-09-14T00:27:00;6.90;;;2.30;;
20832;SDS011;56075;51.264;7.150;2022-09-14T00:29:33;4.78;;;2.20;;
20832;SDS011;56075;51.264;7.150;2022-09-14T00:32:04;7.03;;;2.30;;
20832;SDS011;56075;51.264;7.150;2022-09-14T00:34:35;3.80;;;2.40;;
20832;SDS011;56075;51.264;7.150;2022-09-14T00:37:06;4.93;;;2.53;;
20832;SDS011;56075;51.264;7.150;2022-09-14T00:39:37;4.43;;;2.53;;
20832;SDS011;56075;51.264;7.150;2022-09-14T00:42:09;7.03;;;2.70;;
20832;SDS011;56075;51.264;7.150;2022-09-14T00:47:17;5.88;;;2.78;;
20832;SDS011;56075;51.264;7.150;2022-09-14T00:49:48;9.07;;;3.30;;
20832;SDS011;56075;51.264;7.150;2022-09-14T00:52:21;8.32;;;3.22;;
20832;SDS011;56075;51.264;7.150;2022-09-14T00:54:57;7.97;;;3.33;;
20832;SDS011;56075;51.264;7.150;2022-09-14T00:57:39;5.82;;;3.30;;
20832;SDS011;56075;51.264;7.150;2022-09-14T01:00:16;7.63;;;3.50;;
20832;SDS011;56075;51.264;7.150;2022-09-14T01:02:49;7.90;;;3.00;;
20832;SDS011;56075;51.264;7.150;2022-09-14T01:05:34;4.95;;;3.00;;
20832;SDS011;56075;51.264;7.150;2022-09-14T01:14:14;7.70;;;3.13;;
20832;SDS011;56075;51.264;7.150;2022-09-14T01:17:12;8.68;;;2.97;;
20832;SDS011;56075;51.264;7.150;2022-09-14T01:22:35;6.85;;;3.38;;
20832;SDS011;56075;51.264;7.150;2022-09-14T01:25:27;6.80;;;3.38;;
20832;SDS011;56075;51.264;7.150;2022-09-14T01:28:09;7.20;;;2.88;;
20832;SDS011;56075;51.264;7.150;2022-09-14T01:30:52;6.10;;;2.67;;
20832;SDS011;56075;51.264;7.150;2022-09-14T01:33:29;6.80;;;2.88;;
20832;SDS011;56075;51.264;7.150;2022-09-14T01:36:06;9.18;;;2.72;;
20832;SDS011;56075;51.264;7.150;2022-09-14T01:38:41;9.88;;;3.05;;
20832;SDS011;56075;51.264;7.150;2022-09-14T01:41:19;7.25;;;2.78;;
20832;SDS011;56075;51.264;7.150;2022-09-14T01:43:56;5.28;;;2.40;;
20832;SDS011;56075;51.264;7.150;2022-09-14T01:46:44;5.65;;;2.63;;
20832;SDS011;56075;51.264;7.150;2022-09-14T01:49:38;7.18;;;2.40;;
20832;SDS011;56075;51.264;7.150;2022-09-14T01:52:15;11.40;;;2.50;;
20832;SDS011;56075;51.264;7.150;2022-09-14T01:54:51;5.07;;;2.40;;
20832;SDS011;56075;51.264;7.150;2022-09-14T01:57:35;7.05;;;2.50;;
20832;SDS011;56075;51.264;7.150;2022-09-14T02:00:14;5.88;;;2.35;;
20832;SDS011;56075;51.264;7.150;2022-09-14T02:08:21;6.80;;;2.35;;
20832;SDS011;56075;51.264;7.150;2022-09-14T02:10:54;5.60;;;2.25;;
20832;SDS011;56075;51.264;7.150;2022-09-14T02:13:26;7.57;;;2.30;;
20832;SDS011;56075;51.264;7.150;2022-09-14T02:15:58;6.22;;;2.75;;
20832;SDS011;56075;51.264;7.150;2022-09-14T02:18:30;5.13;;;2.35;;
20832;SDS011;56075;51.264;7.150;2022-09-14T02:21:03;10.20;;;2.33;;
20832;SDS011;56075;51.264;7.150;2022-09-14T02:23:42;9.52;;;2.33;;
20832;SDS011;56075;51.264;7.150;2022-09-14T02:26:13;8.35;;;2.45;;
20832;SDS011;56075;51.264;7.150;2022-09-14T02:28:46;5.53;;;2.92;;
20832;SDS011;56075;51.264;7.150;2022-09-14T02:37:36;9.05;;;2.67;;
20832;SDS011;56075;51.264;7.150;2022-09-14T02:51:53;8.23;;;2.60;;
20832;SDS011;56075;51.264;7.150;2022-09-14T02:54:30;7.35;;;2.58;;
20832;SDS011;56075;51.264;7.150;2022-09-14T02:57:06;7.90;;;2.88;;
20832;SDS011;56075;51.264;7.150;2022-09-14T02:59:37;8.25;;;2.90;;
20832;SDS011;56075;51.264;7.150;2022-09-14T03:02:09;7.35;;;2.65;;
20832;SDS011;56075;51.264;7.150;2022-09-14T03:04:40;6.68;;;2.80;;
20832;SDS011;56075;51.264;7.150;2022-09-14T03:07:11;7.97;;;3.80;;
20832;SDS011;56075;51.264;7.150;2022-09-14T03:09:42;7.22;;;3.13;;
20832;SDS011;56075;51.264;7.150;2022-09-14T03:12:13;6.43;;;3.10;;
20832;SDS011;56075;51.264;7.150;2022-09-14T03:14:45;5.40;;;2.90;;
20832;SDS011;56075;51.264;7.150;2022-09-14T03:17:16;6.72;;;3.00;;
20832;SDS011;56075;51.264;7.150;2022-09-14T03:19:47;7.78;;;3.50;;
20832;SDS011;56075;51.264;7.150;2022-09-14T03:22:18;8.10;;;3.35;;
20832;SDS011;56075;51.264;7.150;2022-09-14T03:24:49;9.77;;;3.88;;
20832;SDS011;56075;51.264;7.150;2022-09-14T03:27:20;11.23;;;3.88;;
20832;SDS011;56075;51.264;7.150;2022-09-14T03:29:51;6.47;;;3.30;;
20832;SDS011;56075;51.264;7.150;2022-09-14T03:32:22;10.13;;;3.75;;
20832;SDS011;56075;51.264;7.150;2022-09-14T03:34:54;8.30;;;3.25;;
20832;SDS011;56075;51.264;7.150;2022-09-14T03:37:25;10.32;;;3.50;;
20832;SDS011;56075;51.264;7.150;2022-09-14T03:39:57;8.75;;;3.58;;
20832;SDS011;56075;51.264;7.150;2022-09-14T03:42:28;8.70;;;3.70;;
20832;SDS011;56075;51.264;7.150;2022-09-14T03:44:59;12.13;;;3.60;;
20832;SDS011;56075;51.264;7.150;2022-09-14T03:47:30;10.40;;;3.40;;
20832;SDS011;56075;51.264;7.150;2022-09-14T03:50:01;8.25;;;3.65;;
20832;SDS011;56075;51.264;7.150;2022-09-14T03:52:34;9.02;;;3.72;;
20832;SDS011;56075;51.264;7.150;2022-09-14T03:55:06;9.30;;;3.45;;
20832;SDS011;56075;51.264;7.150;2022-09-14T03:57:38;8.35;;;3.03;;
20832;SDS011;56075;51.264;7.150;2022-09-14T04:00:10;6.80;;;2.92;;
20832;SDS011;56075;51.264;7.150;2022-09-14T04:02:44;9.88;;;3.40;;
20832;SDS011;56075;51.264;7.150;2022-09-14T04:05:15;10.65;;;3.63;;
20832;SDS011;56075;51.264;7.150;2022-09-14T04:07:47;12.13;;;3.42;;
20832;SDS011;56075;51.264;7.150;2022-09-14T04:10:18;10.73;;;3.50;;
20832;SDS011;56075;51.264;7.150;2022-09-14T04:12:49;10.30;;;3.65;;
20832;SDS011;56075;51.264;7.150;2022-09-14T04:15:20;9.80;;;3.80;;
20832;SDS011;56075;51.264;7.150;2022-09-14T04:17:51;10.23;;;3.67;;
20832;SDS011;56075;51.264;7.150;2022-09-14T04:20:22;8.82;;;3.50;;
20832;SDS011;56075;51.264;7.150;2022-09-14T04:22:53;9.50;;;3.83;;
20832;SDS011;56075;51.264;7.150;2022-09-14T04:25:24;11.68;;;4.13;;
20832;SDS011;56075;51.264;7.150;2022-09-14T04:27:55;9.05;;;3.72;;
20832;SDS011;56075;51.264;7.150;2022-09-14T04:30:27;12.07;;;4.20;;
20832;SDS011;56075;51.264;7.150;2022-09-14T04:32:58;12.80;;;4.10;;
20832;SDS011;56075;51.264;7.150;2022-09-14T04:35:29;11.20;;;4.32;;
20832;SDS011;56075;51.264;7.150;2022-09-14T04:38:00;16.35;;;4.18;;
20832;SDS011;56075;51.264;7.150;2022-09-14T04:40:32;14.63;;;4.05;;
20832;SDS011;56075;51.264;7.150;2022-09-14T04:43:03;11.27;;;4.20;;
20832;SDS011;56075;51.264;7.150;2022-09-14T04:45:34;8.98;;;3.70;;
20832;SDS011;56075;51.264;7.150;2022-09-14T04:48:06;13.05;;;3.47;;
20832;SDS011;56075;51.264;7.150;2022-09-14T04:50:38;8.50;;;3.53;;
20832;SDS011;56075;51.264;7.150;2022-09-14T04:53:09;7.28;;;3.67;;
20832;SDS011;56075;51.264;7.150;2022-09-14T04:55:41;9.40;;;3.63;;
20832;SDS011;56075;51.264;7.150;2022-09-14T04:58:12;10.93;;;3.85;;
20832;SDS011;56075;51.264;7.150;2022-09-14T05:00:43;11.60;;;3.88;;
20832;SDS011;56075;51.264;7.150;2022-09-14T05:03:14;11.40;;;3.13;;
20832;SDS011;56075;51.264;7.150;2022-09-14T05:05:46;9.95;;;3.88;;
20832;SDS011;56075;51.264;7.150;2022-09-14T05:08:17;12.45;;;4.50;;
20832;SDS011;56075;51.264;7.150;2022-09-14T05:10:48;12.50;;;4.40;;
20832;SDS011;56075;51.264;7.150;2022-09-14T05:13:19;13.77;;;4.18;;
20832;SDS011;56075;51.264;7.150;2022-09-14T05:15:51;9.68;;;3.67;;
20832;SDS011;56075;51.264;7.150;2022-09-14T05:18:22;12.07;;;5.10;;
20832;SDS011;56075;51.264;7.150;2022-09-14T05:20:53;11.10;;;4.25;;
20832;SDS011;56075;51.264;7.150;2022-09-14T05:23:24;13.77;;;4.25;;
20832;SDS011;56075;51.264;7.150;2022-09-14T05:25:55;10.98;;;3.80;;
20832;SDS011;56075;51.264;7.150;2022-09-14T05:28:27;12.27;;;3.90;;
20832;SDS011;56075;51.264;7.150;2022-09-14T05:30:58;12.15;;;4.28;;
20832;SDS011;56075;51.264;7.150;2022-09-14T05:33:33;16.20;;;3.97;;
20832;SDS011;56075;51.264;7.150;2022-09-14T05:36:06;11.32;;;4.05;;
20832;SDS011;56075;51.264;7.150;2022-09-14T05:38:38;11.13;;;3.70;;
20832;SDS011;56075;51.264;7.150;2022-09-14T05:41:10;11.07;;;4.07;;
20832;SDS011;56075;51.264;7.150;2022-09-14T05:43:43;10.85;;;3.97;;
20832;SDS011;56075;51.264;7.150;2022-09-14T05:46:16;11.23;;;4.20;;
20832;SDS011;56075;51.264;7.150;2022-09-14T05:48:51;12.55;;;3.90;;
20832;SDS011;56075;51.264;7.150;2022-09-14T05:51:23;11.63;;;3.78;;
20832;SDS011;56075;51.264;7.150;2022-09-14T05:53:56;7.75;;;3.63;;
20832;SDS011;56075;51.264;7.150;2022-09-14T05:56:28;11.77;;;3.47;;
20832;SDS011;56075;51.264;7.150;2022-09-14T05:59:01;12.88;;;3.72;;
20832;SDS011;56075;51.264;7.150;2022-09-14T06:01:33;11.98;;;3.58;;
20832;SDS011;56075;51.264;7.150;2022-09-14T06:04:04;14.63;;;4.03;;
20832;SDS011;56075;51.264;7.150;2022-09-14T06:06:35;8.57;;;3.58;;
20832;SDS011;56075;51.264;7.150;2022-09-14T06:09:06;14.43;;;3.80;;
20832;SDS011;56075;51.264;7.150;2022-09-14T06:11:37;10.52;;;3.92;;
20832;SDS011;56075;51.264;7.150;2022-09-14T06:14:08;9.38;;;4.10;;
20832;SDS011;56075;51.264;7.150;2022-09-14T06:16:39;10.45;;;3.80;;
20832;SDS011;56075;51.264;7.150;2022-09-14T06:19:11;11.70;;;3.45;;
20832;SDS011;56075;51.264;7.150;2022-09-14T06:21:43;14.88;;;3.78;;
20832;SDS011;56075;51.264;7.150;2022-09-14T06:24:15;8.30;;;3.75;;
20832;SDS011;56075;51.264;7.150;2022-09-14T06:26:46;12.93;;;3.92;;
20832;SDS011;56075;51.264;7.150;2022-09-14T06:29:17;13.15;;;3.78;;
20832;SDS011;56075;51.264;7.150;2022-09-14T06:31:49;11.63;;;4.10;;
20832;SDS011;56075;51.264;7.150;2022-09-14T06:34:20;12.73;;;5.00;;
20832;SDS011;56075;51.264;7.150;2022-09-14T06:36:51;11.52;;;4.25;;
20832;SDS011;56075;51.264;7.150;2022-09-14T06:39:22;12.75;;;4.57;;
20832;SDS011;56075;51.264;7.150;2022-09-14T06:41:54;12.95;;;5.03;;
20832;SDS011;56075;51.264;7.150;2022-09-14T06:44:25;12.50;;;4.82;;
20832;SDS011;56075;51.264;7.150;2022-09-14T06:46:56;11.60;;;5.15;;
20832;SDS011;56075;51.264;7.150;2022-09-14T06:49:27;13.10;;;4.35;;
20832;SDS011;56075;51.264;7.150;2022-09-14T06:51:59;15.55;;;5.32;;
20832;SDS011;56075;51.264;7.150;2022-09-14T06:54:30;11.77;;;4.65;;
20832;SDS011;56075;51.264;7.150;2022-09-14T06:57:01;12.48;;;5.03;;
20832;SDS011;56075;51.264;7.150;2022-09-14T06:59:33;13.23;;;5.00;;
20832;SDS011;56075;51.264;7.150;2022-09-14T07:02:04;12.05;;;5.35;;
20832;SDS011;56075;51.264;7.150;2022-09-14T07:04:35;11.10;;;4.75;;
20832;SDS011;56075;51.264;7.150;2022-09-14T07:07:06;12.02;;;5.15;;
20832;SDS011;56075;51.264;7.150;2022-09-14T07:09:37;10.57;;;5.03;;
20832;SDS011;56075;51.264;7.150;2022-09-14T07:12:08;9.90;;;5.50;;
20832;SDS011;56075;51.264;7.150;2022-09-14T07:14:41;13.70;;;5.28;;
20832;SDS011;56075;51.264;7.150;2022-09-14T07:17:12;11.30;;;5.90;;
20832;SDS011;56075;51.264;7.150;2022-09-14T07:19:45;12.20;;;5.18;;
20832;SDS011;56075;51.264;7.150;2022-09-14T07:22:16;13.10;;;5.70;;
20832;SDS011;56075;51.264;7.150;2022-09-14T07:24:47;12.10;;;5.40;;
20832;SDS011;56075;51.264;7.150;2022-09-14T07:27:18;12.15;;;5.20;;
20832;SDS011;56075;51.264;7.150;2022-09-14T07:29:49;12.13;;;5.50;;
20832;SDS011;56075;51.264;7.150;2022-09-14T07:32:20;10.32;;;5.88;;
20832;SDS011;56075;51.264;7.150;2022-09-14T07:34:52;18.50;;;5.80;;
20832;SDS011;56075;51.264;7.150;2022-09-14T07:37:23;11.00;;;5.40;;
20832;SDS011;56075;51.264;7.150;2022-09-14T07:39:54;11.75;;;5.03;;
20832;SDS011;56075;51.264;7.150;2022-09-14T07:42:26;10.80;;;5.47;;
20832;SDS011;56075;51.264;7.150;2022-09-14T07:44:57;12.63;;;5.25;;
20832;SDS011;56075;51.264;7.150;2022-09-14T07:47:28;14.07;;;6.30;;
20832;SDS011;56075;51.264;7.150;2022-09-14T07:50:00;11.70;;;5.53;;
20832;SDS011;56075;51.264;7.150;2022-09-14T07:52:32;13.07;;;5.57;;
20832;SDS011;56075;51.264;7.150;2022-09-14T07:55:04;11.60;;;5.07;;
20832;SDS011;56075;51.264;7.150;2022-09-14T07:57:36;6.40;;;4.55;;
20832;SDS011;56075;51.264;7.150;2022-09-14T08:00:08;11.25;;;5.10;;
20832;SDS011;56075;51.264;7.150;2022-09-14T08:02:42;9.13;;;5.00;;
20832;SDS011;56075;51.264;7.150;2022-09-14T08:05:14;7.70;;;4.20;;
20832;SDS011;56075;51.264;7.150;2022-09-14T08:07:45;8.63;;;4.05;;
20832;SDS011;56075;51.264;7.150;2022-09-14T08:10:16;8.95;;;4.43;;
20832;SDS011;56075;51.264;7.150;2022-09-14T08:12:51;7.68;;;4.25;;
20832;SDS011;56075;51.264;7.150;2022-09-14T08:15:23;6.63;;;3.80;;
20832;SDS011;56075;51.264;7.150;2022-09-14T08:17:54;7.47;;;3.70;;
20832;SDS011;56075;51.264;7.150;2022-09-14T08:20:25;7.88;;;3.92;;
20832;SDS011;56075;51.264;7.150;2022-09-14T08:22:57;7.35;;;4.03;;
20832;SDS011;56075;51.264;7.150;2022-09-14T08:25:28;7.35;;;4.00;;
20832;SDS011;56075;51.264;7.150;2022-09-14T08:28:00;5.72;;;3.85;;
20832;SDS011;56075;51.264;7.150;2022-09-14T08:30:32;7.22;;;3.88;;
20832;SDS011;56075;51.264;7.150;2022-09-14T08:33:03;10.38;;;4.03;;
20832;SDS011;56075;51.264;7.150;2022-09-14T08:35:40;7.35;;;3.78;;
20832;SDS011;56075;51.264;7.150;2022-09-14T08:38:12;8.45;;;3.63;;
20832;SDS011;56075;51.264;7.150;2022-09-14T08:40:44;7.75;;;4.05;;
20832;SDS011;56075;51.264;7.150;2022-09-14T08:43:16;7.38;;;3.83;;
20832;SDS011;56075;51.264;7.150;2022-09-14T08:45:49;5.80;;;3.38;;
20832;SDS011;56075;51.264;7.150;2022-09-14T08:48:28;6.68;;;3.50;;
20832;SDS011;56075;51.264;7.150;2022-09-14T08:51:04;7.13;;;3.53;;
20832;SDS011;56075;51.264;7.150;2022-09-14T08:53:37;7.97;;;3.80;;
20832;SDS011;56075;51.264;7.150;2022-09-14T08:56:17;7.03;;;3.38;;
20832;SDS011;56075;51.264;7.150;2022-09-14T09:07:47;4.55;;;3.00;;
20832;SDS011;56075;51.264;7.150;2022-09-14T09:10:30;6.38;;;2.90;;
20832;SDS011;56075;51.264;7.150;2022-09-14T09:13:03;5.43;;;3.45;;
20832;SDS011;56075;51.264;7.150;2022-09-14T09:15:39;7.82;;;3.90;;
20832;SDS011;56075;51.264;7.150;2022-09-14T09:24:33;3.60;;;2.45;;
20832;SDS011;56075;51.264;7.150;2022-09-14T09:27:10;4.85;;;2.90;;
20832;SDS011;56075;51.264;7.150;2022-09-14T09:29:42;6.00;;;3.20;;
20832;SDS011;56075;51.264;7.150;2022-09-14T09:32:21;4.15;;;2.80;;
20832;SDS011;56075;51.264;7.150;2022-09-14T09:35:23;4.28;;;2.83;;
20832;SDS011;56075;51.264;7.150;2022-09-14T09:38:19;6.30;;;3.15;;
20832;SDS011;56075;51.264;7.150;2022-09-14T09:40:59;9.30;;;3.65;;
20832;SDS011;56075;51.264;7.150;2022-09-14T09:43:35;8.77;;;3.38;;
20832;SDS011;56075;51.264;7.150;2022-09-14T09:46:53;7.82;;;3.55;;
20832;SDS011;56075;51.264;7.150;2022-09-14T09:49:30;8.57;;;4.03;;
20832;SDS011;56075;51.264;7.150;2022-09-14T09:52:13;6.88;;;3.92;;
20832;SDS011;56075;51.264;7.150;2022-09-14T09:54:50;9.48;;;4.65;;
20832;SDS011;56075;51.264;7.150;2022-09-14T09:57:27;8.13;;;4.38;;
20832;SDS011;56075;51.264;7.150;2022-09-14T10:02:47;5.72;;;3.42;;
20832;SDS011;56075;51.264;7.150;2022-09-14T10:05:27;7.25;;;3.65;;
20832;SDS011;56075;51.264;7.150;2022-09-14T10:08:01;6.05;;;3.53;;
20832;SDS011;56075;51.264;7.150;2022-09-14T10:10:43;6.78;;;3.50;;
20832;SDS011;56075;51.264;7.150;2022-09-14T10:16:03;7.47;;;3.70;;
20832;SDS011;56075;51.264;7.150;2022-09-14T10:18:40;6.13;;;3.50;;
20832;SDS011;56075;51.264;7.150;2022-09-14T10:21:16;6.13;;;2.90;;
20832;SDS011;56075;51.264;7.150;2022-09-14T10:24:01;5.35;;;3.20;;
20832;SDS011;56075;51.264;7.150;2022-09-14T10:26:34;10.27;;;3.53;;
20832;SDS011;56075;51.264;7.150;2022-09-14T10:32:17;5.47;;;3.45;;
20832;SDS011;56075;51.264;7.150;2022-09-14T10:34:52;5.95;;;3.75;;
20832;SDS011;56075;51.264;7.150;2022-09-14T10:37:30;6.75;;;3.35;;
20832;SDS011;56075;51.264;7.150;2022-09-14T10:40:10;8.40;;;3.88;;
20832;SDS011;56075;51.264;7.150;2022-09-14T10:42:52;6.25;;;3.58;;
20832;SDS011;56075;51.264;7.150;2022-09-14T10:45:40;6.97;;;3.70;;
20832;SDS011;56075;51.264;7.150;2022-09-14T10:51:42;7.72;;;3.33;;
20832;SDS011;56075;51.264;7.150;2022-09-14T10:54:53;5.55;;;2.97;;
20832;SDS011;56075;51.264;7.150;2022-09-14T11:00:14;5.75;;;3.47;;
20832;SDS011;56075;51.264;7.150;2022-09-14T11:06:00;5.00;;;3.35;;
20832;SDS011;56075;51.264;7.150;2022-09-14T11:09:03;5.55;;;3.25;;
20832;SDS011;56075;51.264;7.150;2022-09-14T11:17:17;6.88;;;2.65;;
20832;SDS011;56075;51.264;7.150;2022-09-14T11:20:16;5.35;;;2.28;;
20832;SDS011;56075;51.264;7.150;2022-09-14T11:28:53;3.58;;;1.85;;
20832;SDS011;56075;51.264;7.150;2022-09-14T11:31:30;4.72;;;2.03;;
20832;SDS011;56075;51.264;7.150;2022-09-14T11:34:19;3.33;;;1.80;;
20832;SDS011;56075;51.264;7.150;2022-09-14T11:36:58;5.70;;;1.63;;
20832;SDS011;56075;51.264;7.150;2022-09-14T11:39:40;2.83;;;1.90;;
20832;SDS011;56075;51.264;7.150;2022-09-14T11:45:02;3.90;;;2.25;;
20832;SDS011;56075;51.264;7.150;2022-09-14T11:47:38;2.58;;;2.05;;
20832;SDS011;56075;51.264;7.150;2022-09-14T11:50:25;4.30;;;2.10;;
20832;SDS011;56075;51.264;7.150;2022-09-14T11:53:07;4.55;;;2.05;;
20832;SDS011;56075;51.264;7.150;2022-09-14T11:55:44;3.60;;;2.20;;
20832;SDS011;56075;51.264;7.150;2022-09-14T11:58:19;5.82;;;2.10;;
20832;SDS011;56075;51.264;7.150;2022-09-14T12:03:45;4.43;;;2.58;;
20832;SDS011;56075;51.264;7.150;2022-09-14T12:11:53;5.35;;;2.60;;
20832;SDS011;56075;51.264;7.150;2022-09-14T12:14:34;5.15;;;3.00;;
20832;SDS011;56075;51.264;7.150;2022-09-14T12:19:51;3.53;;;2.20;;
20832;SDS011;56075;51.264;7.150;2022-09-14T12:25:14;4.68;;;2.38;;
20832;SDS011;56075;51.264;7.150;2022-09-14T12:27:47;4.28;;;2.28;;
20832;SDS011;56075;51.264;7.150;2022-09-14T12:36:02;4.00;;;2.45;;
20832;SDS011;56075;51.264;7.150;2022-09-14T12:39:04;5.20;;;3.00;;
20832;SDS011;56075;51.264;7.150;2022-09-14T12:50:15;7.50;;;3.83;;
20832;SDS011;56075;51.264;7.150;2022-09-14T12:53:02;5.05;;;3.60;;
20832;SDS011;56075;51.264;7.150;2022-09-14T12:55:55;6.13;;;3.80;;
20832;SDS011;56075;51.264;7.150;2022-09-14T13:01:50;5.43;;;3.03;;
20832;SDS011;56075;51.264;7.150;2022-09-14T13:04:43;4.60;;;3.03;;
20832;SDS011;56075;51.264;7.150;2022-09-14T13:07:16;6.18;;;3.13;;
20832;SDS011;56075;51.264;7.150;2022-09-14T13:09:50;5.95;;;3.25;;
20832;SDS011;56075;51.264;7.150;2022-09-14T13:12:25;6.10;;;3.67;;
20832;SDS011;56075;51.264;7.150;2022-09-14T13:15:04;6.63;;;3.28;;
20832;SDS011;56075;51.264;7.150;2022-09-14T13:17:56;5.28;;;3.22;;
20832;SDS011;56075;51.264;7.150;2022-09-14T13:20:29;4.80;;;3.22;;
20832;SDS011;56075;51.264;7.150;2022-09-14T13:23:17;5.28;;;3.40;;
20832;SDS011;56075;51.264;7.150;2022-09-14T13:25:53;7.63;;;4.03;;
20832;SDS011;56075;51.264;7.150;2022-09-14T13:28:25;11.57;;;4.50;;
20832;SDS011;56075;51.264;7.150;2022-09-14T13:30:59;6.68;;;4.53;;
20832;SDS011;56075;51.264;7.150;2022-09-14T13:33:32;9.68;;;4.10;;
20832;SDS011;56075;51.264;7.150;2022-09-14T13:36:03;9.32;;;4.72;;
20832;SDS011;56075;51.264;7.150;2022-09-14T13:38:35;6.72;;;3.85;;
20832;SDS011;56075;51.264;7.150;2022-09-14T13:41:09;6.45;;;3.67;;
20832;SDS011;56075;51.264;7.150;2022-09-14T13:43:43;8.48;;;3.42;;
20832;SDS011;56075;51.264;7.150;2022-09-14T13:46:16;4.90;;;3.30;;
20832;SDS011;56075;51.264;7.150;2022-09-14T13:48:48;5.10;;;2.83;;
20832;SDS011;56075;51.264;7.150;2022-09-14T13:51:21;3.95;;;2.90;;
20832;SDS011;56075;51.264;7.150;2022-09-14T13:53:56;4.60;;;2.83;;
20832;SDS011;56075;51.264;7.150;2022-09-14T13:56:45;4.38;;;3.13;;
20832;SDS011;56075;51.264;7.150;2022-09-14T13:59:18;4.35;;;2.95;;
20832;SDS011;56075;51.264;7.150;2022-09-14T14:01:52;5.15;;;2.75;;
20832;SDS011;56075;51.264;7.150;2022-09-14T14:04:36;5.15;;;3.40;;
20832;SDS011;56075;51.264;7.150;2022-09-14T14:12:29;5.85;;;3.17;;
20832;SDS011;56075;51.264;7.150;2022-09-14T14:15:02;4.20;;;2.95;;
20832;SDS011;56075;51.264;7.150;2022-09-14T14:17:56;5.30;;;3.08;;
20832;SDS011;56075;51.264;7.150;2022-09-14T14:20:30;5.13;;;3.50;;
20832;SDS011;56075;51.264;7.150;2022-09-14T14:25:42;4.47;;;3.25;;
20832;SDS011;56075;51.264;7.150;2022-09-14T14:28:18;6.22;;;3.60;;
20832;SDS011;56075;51.264;7.150;2022-09-14T14:30:52;5.38;;;3.53;;
20832;SDS011;56075;51.264;7.150;2022-09-14T14:33:25;5.65;;;3.60;;
20832;SDS011;56075;51.264;7.150;2022-09-14T14:35:56;4.20;;;3.33;;
20832;SDS011;56075;51.264;7.150;2022-09-14T14:38:27;5.97;;;3.65;;
20832;SDS011;56075;51.264;7.150;2022-09-14T14:40:58;6.45;;;3.72;;
20832;SDS011;56075;51.264;7.150;2022-09-14T14:43:30;5.38;;;4.25;;
20832;SDS011;56075;51.264;7.150;2022-09-14T14:46:01;6.10;;;3.80;;
20832;SDS011;56075;51.264;7.150;2022-09-14T14:48:36;8.27;;;4.28;;
20832;SDS011;56075;51.264;7.150;2022-09-14T14:51:12;7.50;;;3.85;;
20832;SDS011;56075;51.264;7.150;2022-09-14T14:53:46;8.60;;;4.53;;
20832;SDS011;56075;51.264;7.150;2022-09-14T14:56:17;5.50;;;3.85;;
20832;SDS011;56075;51.264;7.150;2022-09-14T14:58:48;8.95;;;4.60;;
20832;SDS011;56075;51.264;7.150;2022-09-14T15:01:19;6.78;;;4.40;;
20832;SDS011;56075;51.264;7.150;2022-09-14T15:03:51;6.78;;;4.80;;
20832;SDS011;56075;51.264;7.150;2022-09-14T15:06:24;7.65;;;5.03;;
20832;SDS011;56075;51.264;7.150;2022-09-14T15:08:56;6.75;;;4.35;;
20832;SDS011;56075;51.264;7.150;2022-09-14T15:11:28;6.45;;;4.68;;
20832;SDS011;56075;51.264;7.150;2022-09-14T15:14:00;8.40;;;4.88;;
20832;SDS011;56075;51.264;7.150;2022-09-14T15:16:32;8.95;;;5.15;;
20832;SDS011;56075;51.264;7.150;2022-09-14T15:19:03;8.85;;;4.57;;
20832;SDS011;56075;51.264;7.150;2022-09-14T15:21:34;8.00;;;4.68;;
20832;SDS011;56075;51.264;7.150;2022-09-14T15:24:07;8.40;;;4.80;;
20832;SDS011;56075;51.264;7.150;2022-09-14T15:26:39;8.63;;;5.22;;
20832;SDS011;56075;51.264;7.150;2022-09-14T15:29:10;8.05;;;4.68;;
20832;SDS011;56075;51.264;7.150;2022-09-14T15:31:47;8.73;;;5.07;;
20832;SDS011;56075;51.264;7.150;2022-09-14T15:34:18;10.07;;;5.07;;
20832;SDS011;56075;51.264;7.150;2022-09-14T15:36:50;8.45;;;5.03;;
20832;SDS011;56075;51.264;7.150;2022-09-14T15:39:24;7.00;;;4.93;;
20832;SDS011;56075;51.264;7.150;2022-09-14T15:41:56;7.50;;;4.45;;
20832;SDS011;56075;51.264;7.150;2022-09-14T15:44:28;7.75;;;4.55;;
20832;SDS011;56075;51.264;7.150;2022-09-14T15:47:00;7.03;;;4.43;;
20832;SDS011;56075;51.264;7.150;2022-09-14T15:49:33;8.75;;;5.00;;
20832;SDS011;56075;51.264;7.150;2022-09-14T15:52:04;7.90;;;4.85;;
20832;SDS011;56075;51.264;7.150;2022-09-14T15:54:35;10.48;;;6.05;;
20832;SDS011;56075;51.264;7.150;2022-09-14T15:57:09;12.18;;;6.88;;
20832;SDS011;56075;51.264;7.150;2022-09-14T15:59:41;9.10;;;4.88;;
20832;SDS011;56075;51.264;7.150;2022-09-14T16:02:12;9.02;;;4.60;;
20832;SDS011;56075;51.264;7.150;2022-09-14T16:04:43;7.03;;;4.35;;
20832;SDS011;56075;51.264;7.150;2022-09-14T16:07:14;5.47;;;3.75;;
20832;SDS011;56075;51.264;7.150;2022-09-14T16:09:45;7.85;;;4.65;;
20832;SDS011;56075;51.264;7.150;2022-09-14T16:12:16;9.32;;;4.68;;
20832;SDS011;56075;51.264;7.150;2022-09-14T16:14:48;8.90;;;4.60;;
20832;SDS011;56075;51.264;7.150;2022-09-14T16:17:19;7.07;;;3.80;;
20832;SDS011;56075;51.264;7.150;2022-09-14T16:19:50;6.85;;;3.80;;
20832;SDS011;56075;51.264;7.150;2022-09-14T16:22:22;8.05;;;4.07;;
20832;SDS011;56075;51.264;7.150;2022-09-14T16:24:54;6.13;;;3.78;;
20832;SDS011;56075;51.264;7.150;2022-09-14T16:27:25;7.05;;;4.00;;
20832;SDS011;56075;51.264;7.150;2022-09-14T16:29:57;5.85;;;3.78;;
20832;SDS011;56075;51.264;7.150;2022-09-14T16:32:28;6.97;;;4.47;;
20832;SDS011;56075;51.264;7.150;2022-09-14T16:34:59;5.55;;;3.53;;
20832;SDS011;56075;51.264;7.150;2022-09-14T16:37:33;6.43;;;3.92;;
20832;SDS011;56075;51.264;7.150;2022-09-14T16:40:04;5.22;;;3.42;;
20832;SDS011;56075;51.264;7.150;2022-09-14T16:42:35;5.60;;;3.40;;
20832;SDS011;56075;51.264;7.150;2022-09-14T16:45:07;5.35;;;3.35;;
20832;SDS011;56075;51.264;7.150;2022-09-14T16:47:39;7.68;;;4.18;;
20832;SDS011;56075;51.264;7.150;2022-09-14T16:50:10;4.55;;;3.45;;
20832;SDS011;56075;51.264;7.150;2022-09-14T16:52:41;10.07;;;4.57;;
20832;SDS011;56075;51.264;7.150;2022-09-14T16:55:12;7.32;;;3.92;;
20832;SDS011;56075;51.264;7.150;2022-09-14T16:57:43;6.93;;;3.92;;
20832;SDS011;56075;51.264;7.150;2022-09-14T17:00:15;8.68;;;3.47;;
20832;SDS011;56075;51.264;7.150;2022-09-14T17:02:49;8.38;;;3.92;;
20832;SDS011;56075;51.264;7.150;2022-09-14T17:05:21;9.57;;;3.80;;
20832;SDS011;56075;51.264;7.150;2022-09-14T17:07:52;8.50;;;4.45;;
20832;SDS011;56075;51.264;7.150;2022-09-14T17:10:24;9.30;;;3.80;;
20832;SDS011;56075;51.264;7.150;2022-09-14T17:12:55;9.57;;;3.83;;
20832;SDS011;56075;51.264;7.150;2022-09-14T17:15:26;8.65;;;4.00;;
20832;SDS011;56075;51.264;7.150;2022-09-14T17:17:57;8.18;;;3.88;;
20832;SDS011;56075;51.264;7.150;2022-09-14T17:20:28;12.75;;;5.10;;
20832;SDS011;56075;51.264;7.150;2022-09-14T17:22:59;11.25;;;5.40;;
20832;SDS011;56075;51.264;7.150;2022-09-14T17:25:33;15.15;;;6.05;;
20832;SDS011;56075;51.264;7.150;2022-09-14T17:28:04;9.90;;;4.22;;